Briefing drone pour La voulte-sur-rhone

Rechercher une autre localisation

Conditions de vol :


Nous sommes le : Vendredi 16 avril 2021
Il est 20:19 UTC (22:19 LT)

Lever de soleil : 04:27 UTC (06:27 LT)
Coucher de soleil : 18:53 UTC (20:53 LT)

Météo

L'essentiel des conditions de vol

VIGILANCE MÉTÉO FRANCE - Ardèche (07)
Pas de vigilances particulieres
METAR de LFLU
LFLU 161800Z AUTO 03004KT 9999 -RA BKN035 BKN043 OVC050 06/04 Q1018

Date d'émission: 16/04/2021
Heure d'émission: 18:00 UTC
Vent: 030° pour 4 KT (7 km/h)
Visibilité horizontale: > 10 km
Plafond :
- Nuages morcelés à 3500ft (1067m)
- Nuages morcelés à 4300ft (1311m)
- Couvert à 5000ft (1524m)
Température: 6 °C
Point de rosée: 4 °C
Humidité: 87%
Pression (QNH): 1018 hPa
Conditions: Faible pluie
Prévision 24h pour Valence (11 km)
Vent : 16° pour 6 KT (22 km/h)
Temperature Maxi: 11 °C
Temperature Min: 11 °C
Humidité : 49%
Condition : Couvert



Warning: count(): Parameter must be an array or an object that implements Countable in /homepages/6/d509196549/htdocs/droneoxygene/briefing.php on line 743
WEBCAM POUR LA VOULTE-SUR-RHONE

Réglementation

Voler en sécurité

CARTES AERONAUTIQUE 1/500.000
CARTES VAC (LFLU)
SUP AIP




Chargement des AIP...
NOTAM (LA VOULTE-SUR-RHONE + Terrain à proximité / FIR )




Chargement des NOTAMS...
CONTACT PREFECTURE 07


Avertissement : Les données mises à disposition sont indicatives. Oxygène Drone ne pourra être tenu responsable de dégâts causés aux biens et aux personnes.